Blake Denton — WDI4288 — position and weather

sailwx.info

Track history (hours):
 
Tides and Currents Weather Stations Pressure Air Temp Water Temp Dewpoint Dewpoint Depression Visibility Wind Speed Wind Dir Waves Ship Positions

Blake Denton

Owner: Marquette Transportation Co. LLC, Paducah, KY. More information available from US FCC via Universal Licensing System and Coast Guard Vessel Documentation Center.

Last reported at 2018-Apr-19 19:04 UTC. Time now 2018-Apr-21 17:23 UTC.
Position N 32°01' W 091°04'.

Length 52 m; draft 3.4 m.

Type: Towing. MMSI: 367072210.

Date/timePositionNaut miles runAvg speedWind from/ knotsBaromVisibWave heightAir tempDewpointWater temp
2018-Apr-19 19:04N 32°01' W 091°04'112.3
2018-Apr-19 19:00N 32°02' W 091°04'5 9.6
2018-Apr-19 18:29N 32°06' W 091°06'3 7.1
2018-Apr-19 18:00N 32°07' W 091°02'510.7
2018-Apr-19 17:30N 32°12' W 090°59'511.0
2018-Apr-19 17:00N 32°17' W 090°57'4 7.7
2018-Apr-19 16:30N 32°21' W 090°56'2 3.4
2018-Apr-19 16:00N 32°21' W 090°58'4 7.4
2018-Apr-19 15:30N 32°24' W 090°59'510.4
2018-Apr-19 15:00N 32°27' W 091°05'510.2
2018-Apr-19 14:29N 32°32' W 091°06'510.7
2018-Apr-19 13:59N 32°37' W 091°09'  
2018-Apr-16 10:54N 32°41' W 091°06'2 6.0
2018-Apr-16 10:30N 32°40' W 091°08'2 4.3
2018-Apr-16 10:00N 32°37' W 091°09'3 5.8
2018-Apr-16 09:30N 32°35' W 091°07'3 5.8
2018-Apr-16 09:00N 32°32' W 091°06'3 6.6
2018-Apr-16 08:30N 32°29' W 091°07'3 6.0
2018-Apr-16 08:00N 32°27' W 091°05'3 6.1
2018-Apr-16 07:30N 32°26' W 091°01'3 5.3
2018-Apr-16 07:00N 32°24' W 090°60'2 4.5
2018-Apr-16 06:30N 32°21' W 090°60'3 5.0
2018-Apr-16 06:00N 32°21' W 090°57'3 5.5
2018-Apr-16 05:30N 32°19' W 090°54'3 6.5
2018-Apr-16 05:00N 32°17' W 090°57'3 6.5
2018-Apr-16 04:30N 32°14' W 090°59'3 6.6
2018-Apr-16 04:00N 32°11' W 090°60'3 6.3
2018-Apr-16 03:30N 32°08' W 091°00'4 6.0
2018-Apr-16 02:52N 32°08' W 091°05'2 5.5
2018-Apr-16 02:26N 32°05' W 091°05'3 6.7
2018-Apr-16 02:00N 32°03' W 091°04'  
2018-Apr-12 09:45N 30°04' W 090°54'0 0.0
2018-Apr-12 09:30N 30°04' W 090°54'115 3.0
2018-Apr-10 18:53N 31°59' W 091°11'410.6
2018-Apr-10 18:30N 31°59' W 091°06'6 9.8
2018-Apr-10 17:56N 32°05' W 091°04'4 8.4
2018-Apr-10 17:30N 32°08' W 091°06'5 9.7
2018-Apr-10 17:00N 32°08' W 091°00'611.4
2018-Apr-10 16:30N 32°14' W 090°59'511.0
2018-Apr-10 16:00N 32°18' W 090°55'3 6.8
2018-Apr-10 15:30N 32°21' W 090°57'4 7.8
2018-Apr-10 15:00N 32°24' W 090°60'611.1
2018-Apr-10 14:28N 32°27' W 091°06'510.2
2018-Apr-10 14:00N 32°32' W 091°06'  
Track history (hours):
 
Tides and Currents Weather Stations Pressure Air Temp Water Temp Dewpoint Dewpoint Depression Visibility Wind Speed Wind Dir Waves Ship Positions

Blake Denton

Owner: Marquette Transportation Co. LLC, Paducah, KY. More information available from US FCC via Universal Licensing System and Coast Guard Vessel Documentation Center.

Last reported at 2018-Apr-19 19:04 UTC. Time now 2018-Apr-21 17:23 UTC.
Position N 32°01' W 091°04'.

Length 52 m; draft 3.4 m.

Type: Towing. MMSI: 367072210.

Date/timePositionNaut miles runAvg speedWind from/ knotsBaromVisibWave heightAir tempDewpointWater temp
2018-Apr-19 19:04N 32°01' W 091°04'112.3
2018-Apr-19 19:00N 32°02' W 091°04'5 9.6
2018-Apr-19 18:29N 32°06' W 091°06'3 7.1
2018-Apr-19 18:00N 32°07' W 091°02'510.7
2018-Apr-19 17:30N 32°12' W 090°59'511.0
2018-Apr-19 17:00N 32°17' W 090°57'4 7.7
2018-Apr-19 16:30N 32°21' W 090°56'2 3.4
2018-Apr-19 16:00N 32°21' W 090°58'4 7.4
2018-Apr-19 15:30N 32°24' W 090°59'510.4
2018-Apr-19 15:00N 32°27' W 091°05'510.2
2018-Apr-19 14:29N 32°32' W 091°06'510.7
2018-Apr-19 13:59N 32°37' W 091°09'  
2018-Apr-16 10:54N 32°41' W 091°06'2 6.0
2018-Apr-16 10:30N 32°40' W 091°08'2 4.3
2018-Apr-16 10:00N 32°37' W 091°09'3 5.8
2018-Apr-16 09:30N 32°35' W 091°07'3 5.8
2018-Apr-16 09:00N 32°32' W 091°06'3 6.6
2018-Apr-16 08:30N 32°29' W 091°07'3 6.0
2018-Apr-16 08:00N 32°27' W 091°05'3 6.1
2018-Apr-16 07:30N 32°26' W 091°01'3 5.3
2018-Apr-16 07:00N 32°24' W 090°60'2 4.5
2018-Apr-16 06:30N 32°21' W 090°60'3 5.0
2018-Apr-16 06:00N 32°21' W 090°57'3 5.5
2018-Apr-16 05:30N 32°19' W 090°54'3 6.5
2018-Apr-16 05:00N 32°17' W 090°57'3 6.5
2018-Apr-16 04:30N 32°14' W 090°59'3 6.6
2018-Apr-16 04:00N 32°11' W 090°60'3 6.3
2018-Apr-16 03:30N 32°08' W 091°00'4 6.0
2018-Apr-16 02:52N 32°08' W 091°05'2 5.5
2018-Apr-16 02:26N 32°05' W 091°05'3 6.7
2018-Apr-16 02:00N 32°03' W 091°04'  
2018-Apr-12 09:45N 30°04' W 090°54'0 0.0
2018-Apr-12 09:30N 30°04' W 090°54'115 3.0
2018-Apr-10 18:53N 31°59' W 091°11'410.6
2018-Apr-10 18:30N 31°59' W 091°06'6 9.8
2018-Apr-10 17:56N 32°05' W 091°04'4 8.4
2018-Apr-10 17:30N 32°08' W 091°06'5 9.7
2018-Apr-10 17:00N 32°08' W 091°00'611.4
2018-Apr-10 16:30N 32°14' W 090°59'511.0
2018-Apr-10 16:00N 32°18' W 090°55'3 6.8
2018-Apr-10 15:30N 32°21' W 090°57'4 7.8
2018-Apr-10 15:00N 32°24' W 090°60'611.1
2018-Apr-10 14:28N 32°27' W 091°06'510.2
2018-Apr-10 14:00N 32°32' W 091°06'  

Dump ship's entire track history